Time;durP1;ratioP1;P1;durP2;ratioP2;P2;SDS_P1;SDS_P2;PMS_P1;PMS_P2;Temp;Humidity;BMP_temperature;BMP_pressure;BME280_temperature;BME280_humidity;BME280_pressure;Samples;Min_cycle;Max_cycle;Signal;HPM_P1;HPM_P2
2022/07/18 00:00:07;;;;;;;0.30;0.30;;;16.50;1.00;;;;;;5016021;28;20191;-77
2022/07/18 00:02:33;;;;;;;0.30;0.30;;;16.40;1.00;;;;;;5016487;28;20215;-78
2022/07/18 00:04:59;;;;;;;0.30;0.30;;;16.40;1.00;;;;;;5016811;28;20540;-78
2022/07/18 00:07:24;;;;;;;0.30;0.30;;;16.20;1.00;;;;;;5016754;28;20185;-78
2022/07/18 00:09:50;;;;;;;0.30;0.30;;;16.10;1.00;;;;;;5015781;28;20226;-79
2022/07/18 00:12:16;;;;;;;0.30;0.30;;;16.00;1.00;;;;;;5016201;28;20247;-78
2022/07/18 00:14:41;;;;;;;0.30;0.30;;;16.00;1.00;;;;;;5016422;28;20235;-79
2022/07/18 00:17:08;;;;;;;0.20;0.20;;;16.00;1.00;;;;;;5016629;28;20191;-79
2022/07/18 00:19:34;;;;;;;0.30;0.30;;;15.90;1.00;;;;;;5016759;28;20176;-78
2022/07/18 00:22:00;;;;;;;0.23;0.23;;;15.90;1.00;;;;;;5016316;28;20587;-79
2022/07/18 00:24:26;;;;;;;0.40;0.40;;;15.90;1.00;;;;;;5016526;28;20173;-79
2022/07/18 00:26:52;;;;;;;0.40;0.40;;;15.80;1.00;;;;;;5017034;28;20323;-78
2022/07/18 00:29:17;;;;;;;0.30;0.30;;;15.80;1.00;;;;;;5015868;28;20661;-79
2022/07/18 00:31:43;;;;;;;0.40;0.40;;;15.80;1.00;;;;;;5016453;28;20721;-80
2022/07/18 00:34:09;;;;;;;0.30;0.30;;;15.80;1.00;;;;;;5017190;28;20630;-80
2022/07/18 00:36:34;;;;;;;0.40;0.40;;;15.80;1.00;;;;;;5016836;28;20180;-79
2022/07/18 00:39:00;;;;;;;0.50;0.50;;;15.80;1.00;;;;;;5016539;28;20226;-78
2022/07/18 00:41:26;;;;;;;0.60;0.60;;;15.80;1.00;;;;;;5016114;28;20180;-79
2022/07/18 00:43:52;;;;;;;0.30;0.30;;;15.70;61.60;;;;;;5016868;28;20200;-79
2022/07/18 00:46:24;;;;;;;0.40;0.40;;;15.60;99.90;;;;;;5017426;28;20191;-79
2022/07/18 00:48:50;;;;;;;0.40;0.40;;;15.70;99.90;;;;;;5017325;28;20184;-80
2022/07/18 00:51:16;;;;;;;0.37;0.37;;;15.70;99.90;;;;;;5016537;28;20182;-79
2022/07/18 00:53:42;;;;;;;0.30;0.30;;;15.70;99.90;;;;;;5017413;28;20640;-79
2022/07/18 00:56:09;;;;;;;0.30;0.30;;;15.60;99.90;;;;;;5017212;28;20212;-80
2022/07/18 00:58:34;;;;;;;0.30;0.30;;;15.60;99.90;;;;;;5017144;28;20177;-80
2022/07/18 01:03:44;;;;;;;0.40;0.40;;;15.50;99.90;;;;;;5017761;28;20219;-80
2022/07/18 01:06:10;;;;;;;0.30;0.30;;;15.50;99.90;;;;;;5017762;28;20259;-78
2022/07/18 01:08:37;;;;;;;0.40;0.40;;;15.40;99.90;;;;;;5021985;28;20177;-78
2022/07/18 01:11:03;;;;;;;0.43;0.43;;;15.40;99.90;;;;;;5021893;28;20180;-78
2022/07/18 01:13:28;;;;;;;0.30;0.30;;;15.40;99.90;;;;;;5023434;28;20306;-78
2022/07/18 01:15:54;;;;;;;0.40;0.40;;;15.40;99.90;;;;;;5023861;28;20196;-78
2022/07/18 01:18:19;;;;;;;0.30;0.30;;;15.40;99.90;;;;;;5017718;28;20191;-79
2022/07/18 01:20:45;;;;;;;0.40;0.40;;;15.40;99.90;;;;;;5014129;28;20187;-78
2022/07/18 01:23:10;;;;;;;0.40;0.40;;;15.40;99.90;;;;;;5014373;28;20232;-79
2022/07/18 01:25:36;;;;;;;0.40;0.40;;;15.30;99.90;;;;;;5014611;28;20219;-78
2022/07/18 01:28:02;;;;;;;0.40;0.40;;;15.30;99.90;;;;;;5014706;28;20188;-78
2022/07/18 01:30:27;;;;;;;0.40;0.40;;;15.20;99.90;;;;;;5013645;28;20200;-79
2022/07/18 01:33:00;;;;;;;0.40;0.40;;;15.10;99.90;;;;;;5014050;28;20595;-78
2022/07/18 01:35:26;;;;;;;0.50;0.50;;;15.00;99.90;;;;;;5014353;28;20172;-78
2022/07/18 01:37:58;;;;;;;0.40;0.40;;;15.00;1.00;;;;;;5014246;28;20184;-78
2022/07/18 01:40:24;;;;;;;0.40;0.40;;;14.90;1.00;;;;;;5012822;28;20172;-78
2022/07/18 01:42:50;;;;;;;0.40;0.40;;;14.90;1.00;;;;;;5014178;28;20208;-79
2022/07/18 01:45:16;;;;;;;0.30;0.30;;;14.90;1.00;;;;;;5014504;28;20626;-79
2022/07/18 01:47:42;;;;;;;0.30;0.30;;;14.80;1.00;;;;;;5014285;28;20185;-79
2022/07/18 01:50:09;;;;;;;0.40;0.40;;;14.80;1.00;;;;;;5013942;28;20184;-79
2022/07/18 01:52:35;;;;;;;0.30;0.30;;;14.70;1.00;;;;;;5013645;28;20303;-80
2022/07/18 01:55:01;;;;;;;0.47;0.47;;;14.70;1.00;;;;;;5015430;28;20207;-79
2022/07/18 01:57:26;;;;;;;0.40;0.40;;;14.60;1.00;;;;;;5014959;28;20226;-79
2022/07/18 01:59:52;;;;;;;0.40;0.40;;;14.60;36.20;;;;;;5015508;28;20180;-78
2022/07/18 02:02:18;;;;;;;0.40;0.40;;;14.50;99.90;;;;;;5015424;28;20188;-79
2022/07/18 02:07:42;;;;;;;0.40;0.40;;;14.50;99.90;;;;;;4992365;28;20763;-78
2022/07/18 02:10:10;;;;;;;0.50;0.50;;;14.50;99.90;;;;;;5014975;28;20188;-78
2022/07/18 02:12:36;;;;;;;0.40;0.40;;;14.50;99.90;;;;;;5014805;28;20314;-78
2022/07/18 02:15:04;;;;;;;0.30;0.30;;;14.40;99.90;;;;;;5016186;28;20173;-78
2022/07/18 02:17:29;;;;;;;0.30;0.30;;;14.30;1.00;;;;;;5014884;28;20203;-80
2022/07/18 02:19:55;;;;;;;0.40;0.40;;;14.20;1.00;;;;;;5014996;28;20537;-79
2022/07/18 02:22:21;;;;;;;0.50;0.50;;;14.10;1.00;;;;;;5014686;28;20200;-79
2022/07/18 02:24:47;;;;;;;0.60;0.60;;;14.00;1.00;;;;;;5014980;28;20176;-78
2022/07/18 02:27:12;;;;;;;0.50;0.50;;;14.00;81.10;;;;;;5014714;28;20184;-78
2022/07/18 02:29:38;;;;;;;0.50;0.50;;;14.00;99.90;;;;;;5013640;28;20176;-79
2022/07/18 02:32:04;;;;;;;0.40;0.40;;;13.90;1.00;;;;;;5014359;28;20208;-78
2022/07/18 02:34:29;;;;;;;0.53;0.53;;;13.90;1.00;;;;;;5014665;28;20191;-78
2022/07/18 02:36:55;;;;;;;0.50;0.50;;;13.90;99.90;;;;;;5014501;28;20269;-78
2022/07/18 02:39:21;;;;;;;0.50;0.50;;;14.00;99.90;;;;;;5014716;28;20226;-78
2022/07/18 02:41:47;;;;;;;0.40;0.40;;;13.90;99.90;;;;;;5015648;28;20223;-79
2022/07/18 02:44:12;;;;;;;0.40;0.40;;;13.80;1.00;;;;;;5015277;28;20193;-78
2022/07/18 02:46:38;;;;;;;0.37;0.37;;;13.80;1.00;;;;;;5015160;28;20193;-79
2022/07/18 02:49:04;;;;;;;0.40;0.40;;;13.80;1.00;;;;;;5013876;28;20525;-78
2022/07/18 02:51:29;;;;;;;0.37;0.37;;;13.80;1.00;;;;;;5014150;28;20275;-78
2022/07/18 02:53:55;;;;;;;0.40;0.40;;;13.80;1.00;;;;;;5014468;28;20281;-78
2022/07/18 02:56:21;;;;;;;0.40;0.40;;;13.70;99.90;;;;;;5015300;28;20263;-79
2022/07/18 02:58:46;;;;;;;0.33;0.33;;;13.70;1.00;;;;;;5019848;28;20677;-77
2022/07/18 03:01:12;;;;;;;0.40;0.40;;;13.70;99.90;;;;;;5024887;28;20187;-77
2022/07/18 03:03:38;;;;;;;0.30;0.30;;;13.70;99.90;;;;;;5025257;28;20192;-77
2022/07/18 03:06:04;;;;;;;0.57;0.57;;;13.70;99.90;;;;;;5027046;28;20612;-77
2022/07/18 03:08:29;;;;;;;0.40;0.40;;;13.70;99.90;;;;;;5030025;28;20184;-77
2022/07/18 03:10:55;;;;;;;0.40;0.40;;;13.70;1.00;;;;;;5027863;28;20175;-78
2022/07/18 03:13:20;;;;;;;0.40;0.40;;;13.70;1.00;;;;;;5018099;28;20717;-78
2022/07/18 03:15:46;;;;;;;0.50;0.50;;;13.70;1.00;;;;;;5017967;28;20621;-78
2022/07/18 03:18:11;;;;;;;0.50;0.50;;;13.60;99.90;;;;;;5017821;28;20185;-78
2022/07/18 03:20:37;;;;;;;0.50;0.50;;;13.60;99.90;;;;;;5017452;28;20181;-78
2022/07/18 03:23:07;;;;;;;0.40;0.40;;;13.60;1.00;;;;;;5019397;28;20299;-78
2022/07/18 03:25:33;;;;;;;0.50;0.50;;;13.60;99.90;;;;;;5020901;28;20314;-77
2022/07/18 03:27:59;;;;;;;0.50;0.50;;;13.50;1.00;;;;;;5021118;28;20515;-79
2022/07/18 03:30:25;;;;;;;0.50;0.50;;;13.60;99.90;;;;;;5020440;28;20279;-79
2022/07/18 03:32:50;;;;;;;0.40;0.40;;;13.50;1.00;;;;;;5021208;28;20209;-79
2022/07/18 03:35:16;;;;;;;0.40;0.40;;;13.50;1.00;;;;;;5021321;28;20268;-79
2022/07/18 03:37:41;;;;;;;0.40;0.40;;;13.40;1.00;;;;;;5021370;28;20184;-79
2022/07/18 03:40:08;;;;;;;0.40;0.40;;;13.40;99.90;;;;;;5020153;28;20180;-79
2022/07/18 03:42:37;;;;;;;0.40;0.40;;;13.40;99.90;;;;;;5020801;28;20196;-78
2022/07/18 03:45:03;;;;;;;0.40;0.40;;;13.40;1.00;;;;;;5021515;28;20263;-79
2022/07/18 03:47:29;;;;;;;0.50;0.50;;;13.40;1.00;;;;;;5020027;28;20598;-80
2022/07/18 03:49:54;;;;;;;0.40;0.40;;;13.40;98.10;;;;;;5018296;28;20630;-76
2022/07/18 03:52:20;;;;;;;0.40;0.40;;;13.40;55.90;;;;;;5013448;28;20205;-77
2022/07/18 03:54:46;;;;;;;0.40;0.40;;;13.40;1.00;;;;;;5014775;28;20176;-76
2022/07/18 03:57:11;;;;;;;0.40;0.40;;;13.40;1.00;;;;;;5014856;28;20180;-76
2022/07/18 03:59:37;;;;;;;0.40;0.40;;;13.30;99.90;;;;;;5014058;28;20176;-76
2022/07/18 04:02:02;;;;;;;0.40;0.40;;;13.30;99.90;;;;;;5014262;28;20208;-76
2022/07/18 04:04:28;;;;;;;0.50;0.50;;;13.30;1.00;;;;;;5014540;28;20573;-76
2022/07/18 04:06:54;;;;;;;0.50;0.50;;;13.20;1.00;;;;;;5014821;28;20165;-76
2022/07/18 04:09:19;;;;;;;0.40;0.40;;;13.10;1.00;;;;;;5014963;28;20180;-77
2022/07/18 04:11:45;;;;;;;0.50;0.50;;;13.10;99.90;;;;;;5014760;28;20173;-77
2022/07/18 04:14:11;;;;;;;0.60;0.60;;;13.20;99.90;;;;;;5014606;28;20208;-76
2022/07/18 04:16:36;;;;;;;0.50;0.50;;;13.20;46.90;;;;;;5013037;28;20201;-76
2022/07/18 04:19:02;;;;;;;0.60;0.60;;;13.30;1.00;;;;;;5013102;28;20608;-76
2022/07/18 04:21:27;;;;;;;0.50;0.50;;;13.40;1.00;;;;;;5013794;28;20179;-77
2022/07/18 04:23:53;;;;;;;0.40;0.40;;;13.50;1.00;;;;;;5014014;28;20235;-76
2022/07/18 04:26:19;;;;;;;0.50;0.50;;;13.60;1.00;;;;;;5014086;28;20969;-76
2022/07/18 04:28:44;;;;;;;0.50;0.50;;;13.70;1.00;;;;;;5014165;28;20172;-76
2022/07/18 04:31:10;;;;;;;0.47;0.47;;;13.80;1.00;;;;;;5015000;28;20263;-79
2022/07/18 04:33:35;;;;;;;0.40;0.40;;;14.00;99.90;;;;;;5017874;28;20219;-80
2022/07/18 04:36:01;;;;;;;0.40;0.40;;;14.10;1.00;;;;;;5019839;28;20188;-81
2022/07/18 04:38:28;;;;;;;0.37;0.37;;;14.20;1.00;;;;;;5018996;28;20180;-81
2022/07/18 04:40:54;;;;;;;0.40;0.40;;;14.30;1.00;;;;;;5017610;28;20169;-81
2022/07/18 04:43:19;;;;;;;0.40;0.40;;;14.30;1.00;;;;;;5019710;28;20673;-79
2022/07/18 04:45:45;;;;;;;0.53;0.53;;;14.40;1.00;;;;;;5023826;28;20172;-80
2022/07/18 04:48:11;;;;;;;0.40;0.40;;;14.20;1.00;;;;;;5024187;28;20543;-80
2022/07/18 04:50:36;;;;;;;0.50;0.50;;;13.90;1.00;;;;;;5016479;28;20169;-80
2022/07/18 04:53:02;;;;;;;0.30;0.30;;;13.80;99.90;;;;;;5016492;28;20632;-80
2022/07/18 04:55:28;;;;;;;0.60;0.60;;;13.80;99.90;;;;;;5016961;28;20601;-80
2022/07/18 04:57:54;;;;;;;0.40;0.40;;;14.00;99.90;;;;;;5017442;28;20177;-81
2022/07/18 05:00:25;;;;;;;0.47;0.47;;;14.20;1.00;;;;;;5016792;28;20560;-80
2022/07/18 05:02:52;;;;;;;0.37;0.37;;;14.40;1.00;;;;;;5017294;28;20678;-81
2022/07/18 05:05:19;;;;;;;0.40;0.40;;;14.60;1.00;;;;;;5017829;28;20180;-80
2022/07/18 05:07:46;;;;;;;0.40;0.40;;;14.80;31.60;;;;;;5017412;28;20269;-80
2022/07/18 05:10:13;;;;;;;0.30;0.30;;;15.00;99.90;;;;;;5017085;28;20168;-80
2022/07/18 05:12:41;;;;;;;0.30;0.30;;;15.10;1.00;;;;;;5016848;28;20600;-81
2022/07/18 05:15:10;;;;;;;0.37;0.37;;;15.30;1.00;;;;;;5016988;28;20200;-81
2022/07/18 05:17:36;;;;;;;0.43;0.43;;;15.30;99.90;;;;;;5016967;28;20177;-81
2022/07/18 05:20:06;;;;;;;0.40;0.40;;;15.30;24.10;;;;;;5016539;28;20251;-81
2022/07/18 05:22:32;;;;;;;0.40;0.40;;;15.30;1.00;;;;;;5017285;28;20221;-81
2022/07/18 05:24:58;;;;;;;0.40;0.40;;;15.00;1.00;;;;;;5017297;28;20184;-80
2022/07/18 05:27:24;;;;;;;0.37;0.37;;;15.10;8.10;;;;;;5016543;28;20180;-80
2022/07/18 05:29:50;;;;;;;0.40;0.40;;;15.30;1.00;;;;;;5016221;28;20215;-79
2022/07/18 05:32:16;;;;;;;0.37;0.37;;;15.50;7.00;;;;;;5017252;28;20632;-80
2022/07/18 05:34:41;;;;;;;0.50;0.50;;;15.70;1.00;;;;;;5015519;28;20176;-80
2022/07/18 05:37:07;;;;;;;0.40;0.40;;;15.70;1.00;;;;;;5017359;28;20565;-80
2022/07/18 05:39:33;;;;;;;0.40;0.40;;;15.80;99.90;;;;;;5017040;28;20271;-80
2022/07/18 05:41:58;;;;;;;0.30;0.30;;;15.80;99.90;;;;;;5017896;28;20205;-80
2022/07/18 05:44:24;;;;;;;0.30;0.30;;;16.00;1.00;;;;;;5017788;28;20176;-80
2022/07/18 05:46:49;;;;;;;0.40;0.40;;;16.10;1.00;;;;;;5018197;28;20184;-81
2022/07/18 05:49:15;;;;;;;0.37;0.37;;;16.20;1.00;;;;;;5017990;28;20596;-80
2022/07/18 05:51:41;;;;;;;0.40;0.40;;;16.30;1.00;;;;;;5018311;28;20664;-81
2022/07/18 05:54:08;;;;;;;0.40;0.40;;;16.30;1.00;;;;;;5017414;28;20239;-81
2022/07/18 05:56:33;;;;;;;0.30;0.30;;;16.60;1.00;;;;;;5017942;28;20184;-80
2022/07/18 05:58:59;;;;;;;0.40;0.40;;;16.80;99.90;;;;;;5017446;28;20176;-79
2022/07/18 06:01:24;;;;;;;0.30;0.30;;;17.00;99.90;;;;;;5017929;28;20184;-81
2022/07/18 06:03:50;;;;;;;0.30;0.30;;;17.10;1.00;;;;;;5018824;28;20263;-81
2022/07/18 06:06:18;;;;;;;0.40;0.40;;;17.10;99.90;;;;;;5018762;28;20176;-80
2022/07/18 06:08:44;;;;;;;0.33;0.33;;;17.30;99.90;;;;;;5019763;28;20176;-80
2022/07/18 06:11:09;;;;;;;0.30;0.30;;;17.50;98.30;;;;;;5018653;28;20180;-81
2022/07/18 06:13:37;;;;;;;0.30;0.30;;;17.50;31.00;;;;;;5019064;28;20216;-81
2022/07/18 06:16:02;;;;;;;0.40;0.40;;;17.40;75.10;;;;;;5018859;28;20181;-80
2022/07/18 06:18:28;;;;;;;0.30;0.30;;;17.50;14.20;;;;;;5022133;28;20524;-79
2022/07/18 06:20:53;;;;;;;0.50;0.50;;;17.70;54.20;;;;;;5026532;28;20200;-80
2022/07/18 06:23:19;;;;;;;0.30;0.30;;;17.80;1.00;;;;;;5031599;28;20204;-80
2022/07/18 06:25:44;;;;;;;0.50;0.50;;;17.90;1.00;;;;;;5032130;28;20173;-81
2022/07/18 06:28:10;;;;;;;0.40;0.40;;;18.00;1.00;;;;;;5019069;28;20646;-81
2022/07/18 06:30:36;;;;;;;0.40;0.40;;;18.10;1.00;;;;;;5015891;28;20192;-80
2022/07/18 06:33:05;;;;;;;0.30;0.30;;;18.20;1.00;;;;;;5015694;28;20708;-80
2022/07/18 06:35:31;;;;;;;0.40;0.40;;;18.10;1.00;;;;;;5016095;28;20544;-80
2022/07/18 06:37:57;;;;;;;0.40;0.40;;;18.30;1.00;;;;;;5015760;28;20187;-81
2022/07/18 06:40:25;;;;;;;0.40;0.40;;;18.50;1.00;;;;;;5016110;28;20626;-81
2022/07/18 06:42:53;;;;;;;0.30;0.30;;;18.80;1.00;;;;;;5017245;28;20192;-81
2022/07/18 06:45:19;;;;;;;0.40;0.40;;;18.90;1.00;;;;;;5016558;28;20211;-80
2022/07/18 06:47:44;;;;;;;0.30;0.30;;;18.80;1.00;;;;;;5016821;28;20177;-81
2022/07/18 06:50:14;;;;;;;0.30;0.30;;;18.90;1.00;;;;;;5015820;28;20184;-80
2022/07/18 06:52:42;;;;;;;0.30;0.30;;;18.90;1.00;;;;;;5016478;28;20212;-81
2022/07/18 06:55:08;;;;;;;0.40;0.40;;;19.00;1.00;;;;;;5016874;28;20176;-82
2022/07/18 06:57:34;;;;;;;0.20;0.20;;;19.10;1.00;;;;;;5016468;28;20757;-81
2022/07/18 06:59:59;;;;;;;0.40;0.40;;;19.20;1.00;;;;;;5016688;28;20196;-82
2022/07/18 07:02:25;;;;;;;0.40;0.40;;;19.60;1.00;;;;;;5017522;28;20200;-81
2022/07/18 07:04:51;;;;;;;0.30;0.30;;;19.70;1.00;;;;;;5016180;28;20184;-78
2022/07/18 07:07:16;;;;;;;0.30;0.30;;;19.80;1.00;;;;;;5015704;28;20228;-80
2022/07/18 07:09:42;;;;;;;0.30;0.30;;;20.10;1.00;;;;;;5014920;28;20172;-81
2022/07/18 07:12:09;;;;;;;0.30;0.30;;;20.20;1.00;;;;;;5015546;28;20219;-81
2022/07/18 07:14:35;;;;;;;0.30;0.30;;;20.10;1.00;;;;;;5015316;28;20189;-81
2022/07/18 07:17:01;;;;;;;0.30;0.30;;;20.20;1.00;;;;;;5015544;28;20191;-81
2022/07/18 07:19:27;;;;;;;0.30;0.30;;;20.30;1.00;;;;;;5014675;28;20184;-79
2022/07/18 07:21:52;;;;;;;0.30;0.30;;;20.50;1.00;;;;;;5015302;28;20205;-81
2022/07/18 07:24:18;;;;;;;0.30;0.30;;;21.00;1.00;;;;;;5015288;28;20718;-81
2022/07/18 07:26:43;;;;;;;0.30;0.30;;;21.00;1.00;;;;;;5016464;28;20599;-82
2022/07/18 07:29:09;;;;;;;0.30;0.30;;;21.20;1.00;;;;;;5015600;28;20203;-79
2022/07/18 07:31:34;;;;;;;0.30;0.30;;;21.30;1.00;;;;;;5015757;28;20177;-80
2022/07/18 07:34:00;;;;;;;0.20;0.20;;;21.40;1.00;;;;;;5016005;28;20616;-79
2022/07/18 07:36:25;;;;;;;0.30;0.30;;;21.70;1.00;;;;;;5015747;28;20168;-80
2022/07/18 07:38:51;;;;;;;0.20;0.20;;;22.10;1.00;;;;;;5015200;28;20231;-79
2022/07/18 07:41:16;;;;;;;0.30;0.30;;;22.30;1.00;;;;;;5016567;28;20180;-82
2022/07/18 07:43:42;;;;;;;0.30;0.30;;;22.40;1.00;;;;;;5016001;28;20278;-80
2022/07/18 07:46:07;;;;;;;0.30;0.30;;;22.50;1.00;;;;;;5016848;28;20181;-79
2022/07/18 07:48:33;;;;;;;0.30;0.30;;;22.70;1.00;;;;;;5016013;28;20650;-82
2022/07/18 07:50:59;;;;;;;0.27;0.27;;;22.80;1.00;;;;;;5018018;28;20181;-82
2022/07/18 07:53:24;;;;;;;0.20;0.20;;;23.30;1.00;;;;;;5020019;28;20220;-82
2022/07/18 07:55:50;;;;;;;0.30;0.30;;;23.50;1.00;;;;;;5019469;28;20691;-83
2022/07/18 07:58:15;;;;;;;0.30;0.30;;;23.90;1.00;;;;;;5019356;28;20208;-83
2022/07/18 08:00:41;;;;;;;0.30;0.30;;;24.60;1.00;;;;;;5018342;28;20700;-82
2022/07/18 08:03:08;;;;;;;0.30;0.30;;;25.40;1.00;;;;;;5022049;28;20199;-82
2022/07/18 08:05:37;;;;;;;0.30;0.30;;;26.00;1.00;;;;;;5020136;28;20181;-83
2022/07/18 08:08:04;;;;;;;0.30;0.30;;;26.50;1.00;;;;;;5020860;28;20268;-82
2022/07/18 08:10:30;;;;;;;0.43;0.43;;;26.90;1.00;;;;;;5021287;28;20172;-83
2022/07/18 08:12:56;;;;;;;0.30;0.30;;;27.20;1.00;;;;;;5034213;28;20219;-82
2022/07/18 08:15:23;;;;;;;0.30;0.30;;;27.60;1.00;;;;;;5034524;28;20235;-81
2022/07/18 08:17:49;;;;;;;0.40;0.40;;;28.00;1.00;;;;;;5037039;28;20188;-83
2022/07/18 08:20:16;;;;;;;0.30;0.30;;;28.50;1.00;;;;;;5035856;28;20199;-82
2022/07/18 08:22:58;;;;;;;0.50;0.50;;;28.50;1.00;;;;;;5038670;28;20231;-82
2022/07/18 08:25:24;;;;;;;0.40;0.40;;;28.90;1.00;;;;;;5035476;28;20181;-81
2022/07/18 08:27:50;;;;;;;0.30;0.30;;;29.30;1.00;;;;;;5028034;28;20177;-82
2022/07/18 08:30:16;;;;;;;0.40;0.40;;;29.00;1.00;;;;;;5020528;28;20212;-83
2022/07/18 08:32:42;;;;;;;0.50;0.50;;;29.30;1.00;;;;;;5025229;28;20240;-80
2022/07/18 08:35:07;;;;;;;0.50;0.50;;;29.60;1.00;;;;;;5022253;28;20181;-83
2022/07/18 08:37:33;;;;;;;0.50;0.50;;;29.90;1.00;;;;;;5023368;28;20181;-82
2022/07/18 08:39:59;;;;;;;0.40;0.40;;;29.60;1.00;;;;;;5022888;28;20207;-79
2022/07/18 08:42:26;;;;;;;0.40;0.40;;;29.50;1.00;;;;;;5022894;28;20200;-83
2022/07/18 08:44:56;;;;;;;0.38;0.38;;;29.60;1.00;;;;;;5022456;28;20176;-82
2022/07/18 08:47:23;;;;;;;0.50;0.50;;;29.60;1.00;;;;;;5025784;28;20446;-81
2022/07/18 08:49:49;;;;;;;0.32;0.32;;;29.60;1.00;;;;;;5024604;28;20176;-81
2022/07/18 08:52:15;;;;;;;0.50;0.50;;;30.00;1.00;;;;;;5020301;28;20725;-81
2022/07/18 08:54:42;;;;;;;0.60;0.60;;;30.40;1.00;;;;;;5019518;28;20200;-82
2022/07/18 08:57:08;;;;;;;0.40;0.40;;;30.40;1.00;;;;;;5019861;28;20184;-81
2022/07/18 08:59:34;;;;;;;0.40;0.40;;;30.00;1.00;;;;;;5019228;28;20200;-82
2022/07/18 09:02:00;;;;;;;0.52;0.52;;;30.30;1.00;;;;;;5018304;28;20554;-80
2022/07/18 09:04:40;;;;;;;0.50;0.50;;;30.50;1.00;;;;;;5018709;28;20180;-81
2022/07/18 09:07:08;;;;;;;0.60;0.60;;;30.70;1.00;;;;;;5018470;28;20191;-81
2022/07/18 09:09:35;;;;;;;0.45;0.45;;;30.50;1.00;;;;;;5018138;28;20172;-80
2022/07/18 09:12:11;;;;;;;0.47;0.47;;;30.90;1.00;;;;;;5017832;28;20276;-80
2022/07/18 09:14:39;;;;;;;0.50;0.50;;;31.30;1.00;;;;;;5017928;28;20195;-80
2022/07/18 09:17:14;;;;;;;0.50;0.50;;;31.60;1.00;;;;;;5019394;28;20173;-80
2022/07/18 09:19:42;;;;;;;0.50;0.50;;;31.80;1.00;;;;;;5018350;28;20257;-81
2022/07/18 09:22:17;;;;;;;0.65;0.65;;;31.80;1.00;;;;;;5017258;28;20201;-80
2022/07/18 09:25:11;;;;;;;0.50;0.50;;;31.90;1.00;;;;;;5018149;28;20660;-81
2022/07/18 09:27:42;;;;;;;0.50;0.50;;;32.20;1.00;;;;;;5017389;28;20185;-80
2022/07/18 09:30:11;;;;;;;0.55;0.55;;;32.30;1.00;;;;;;5017217;28;20242;-81
2022/07/18 09:32:39;;;;;;;0.50;0.50;;;32.30;1.00;;;;;;5017916;28;20629;-81
2022/07/18 09:35:06;;;;;;;0.60;0.60;;;32.60;1.00;;;;;;5017230;28;20179;-80
2022/07/18 09:37:32;;;;;;;0.50;0.50;;;32.90;1.00;;;;;;5016829;28;20207;-79
2022/07/18 09:40:17;;;;;;;0.55;0.55;;;33.00;1.00;;;;;;5016043;28;20192;-80
2022/07/18 09:42:43;;;;;;;0.60;0.60;;;33.20;1.00;;;;;;5016696;28;20196;-80
2022/07/18 09:45:08;;;;;;;0.45;0.45;;;33.40;1.00;;;;;;5016017;28;20203;-80
2022/07/18 09:47:50;;;;;;;0.50;0.50;;;33.50;1.00;;;;;;5016316;28;20259;-80
2022/07/18 09:50:28;;;;;;;0.52;0.52;;;33.60;1.00;;;;;;5015525;28;20263;-81
2022/07/18 09:52:59;;;;;;;0.40;0.40;;;33.20;1.00;;;;;;5015651;28;20227;-80
2022/07/18 09:55:25;;;;;;;0.50;0.50;;;33.00;1.00;;;;;;5015936;28;20176;-80
2022/07/18 09:58:16;;;;;;;0.60;0.60;;;32.90;1.00;;;;;;5016657;28;20177;-80
2022/07/18 10:00:42;;;;;;;0.50;0.50;;;33.00;1.00;;;;;;5015249;28;20858;-80
2022/07/18 10:03:08;;;;;;;0.55;0.55;;;33.10;1.00;;;;;;5016019;28;20233;-81
2022/07/18 10:05:39;;;;;;;0.50;0.50;;;33.40;1.00;;;;;;5016370;28;20186;-80
2022/07/18 10:08:09;;;;;;;0.50;0.50;;;33.70;1.00;;;;;;5015734;28;20208;-80
2022/07/18 10:10:35;;;;;;;0.60;0.60;;;33.70;1.00;;;;;;5020251;28;20187;-80
2022/07/18 10:13:03;;;;;;;0.60;0.60;;;33.70;1.00;;;;;;5019921;28;20241;-80
2022/07/18 10:15:31;;;;;;;0.50;0.50;;;34.00;1.00;;;;;;5020602;28;20181;-80
2022/07/18 10:17:58;;;;;;;0.52;0.52;;;34.30;1.00;;;;;;5015802;28;20259;-81
2022/07/18 10:20:36;;;;;;;0.60;0.60;;;34.50;1.00;;;;;;5014558;28;20347;-80
2022/07/18 10:23:09;;;;;;;0.50;0.50;;;34.00;1.00;;;;;;5015685;28;20201;-80
2022/07/18 10:25:36;;;;;;;0.50;0.50;;;33.70;1.00;;;;;;5015403;28;20260;-81
2022/07/18 10:28:06;;;;;;;0.50;0.50;;;33.60;1.00;;;;;;5015624;28;20187;-81
2022/07/18 10:30:39;;;;;;;0.50;0.50;;;33.90;1.00;;;;;;5029581;23;20185;-79
2022/07/18 10:33:48;;;;;;;0.60;0.60;;;34.00;1.00;;;;;;4995551;28;20232;-78
2022/07/18 10:36:15;;;;;;;0.40;0.40;;;34.20;1.00;;;;;;4996536;28;20182;-78
2022/07/18 10:39:06;;;;;;;0.47;0.47;;;34.40;1.00;;;;;;4996442;28;20180;-78
2022/07/18 10:41:33;;;;;;;0.60;0.60;;;34.50;1.00;;;;;;4996345;28;20660;-77
2022/07/18 10:43:58;;;;;;;0.40;0.40;;;34.50;1.00;;;;;;4998542;28;20195;-80
2022/07/18 10:46:24;;;;;;;0.65;0.65;;;34.00;1.00;;;;;;4995843;28;20185;-78
2022/07/18 10:48:54;;;;;;;0.60;0.60;;;33.50;1.00;;;;;;4994931;28;20174;-78
2022/07/18 10:51:27;;;;;;;0.40;0.40;;;33.50;1.00;;;;;;4994531;28;20188;-78
2022/07/18 10:54:18;;;;;;;0.68;0.68;;;33.70;1.00;;;;;;4993498;28;20213;-76
2022/07/18 10:56:44;;;;;;;0.60;0.60;;;33.60;1.00;;;;;;4991424;28;20186;-76
2022/07/18 10:59:20;;;;;;;0.50;0.50;;;33.70;1.00;;;;;;4992215;28;20181;-76
2022/07/18 11:01:51;;;;;;;0.60;0.60;;;33.70;1.00;;;;;;4993015;28;20191;-76
2022/07/18 11:04:32;;;;;;;0.40;0.40;;;33.30;1.00;;;;;;4992470;28;20185;-76
2022/07/18 11:07:14;;;;;;;0.63;0.63;;;33.60;1.00;;;;;;4992626;28;20179;-78
2022/07/18 11:09:47;;;;;;;0.60;0.60;;;33.40;1.00;;;;;;4991870;28;20173;-76
2022/07/18 11:12:30;;;;;;;0.52;0.52;;;33.20;1.00;;;;;;4992529;28;20197;-79
2022/07/18 11:15:08;;;;;;;0.60;0.60;;;33.10;1.00;;;;;;4997760;28;20199;-78
2022/07/18 11:17:55;;;;;;;0.50;0.50;;;33.20;1.00;;;;;;4994014;28;20649;-78
2022/07/18 11:20:33;;;;;;;0.50;0.50;;;33.50;1.00;;;;;;4994581;28;20177;-79
2022/07/18 11:22:58;;;;;;;0.40;0.40;;;33.80;1.00;;;;;;4995616;28;20196;-78
2022/07/18 11:25:28;;;;;;;0.50;0.50;;;33.60;1.00;;;;;;4997894;28;20178;-77
2022/07/18 11:27:54;;;;;;;0.70;0.70;;;33.50;1.00;;;;;;4998567;28;20179;-78
2022/07/18 11:30:21;;;;;;;0.57;0.57;;;33.50;1.00;;;;;;4997296;28;20169;-77
2022/07/18 11:32:47;;;;;;;0.60;0.60;;;33.70;1.00;;;;;;4996373;28;20234;-79
2022/07/18 11:35:13;;;;;;;0.40;0.40;;;33.70;1.00;;;;;;4999777;28;20173;-80
2022/07/18 11:37:49;;;;;;;0.55;0.55;;;33.60;1.00;;;;;;4999771;28;20178;-78
2022/07/18 11:40:15;;;;;;;0.57;0.57;;;33.60;1.00;;;;;;4997631;28;20174;-78
2022/07/18 11:42:41;;;;;;;0.50;0.50;;;33.40;1.00;;;;;;4998099;28;20229;-77
2022/07/18 11:45:10;;;;;;;0.60;0.60;;;33.30;1.00;;;;;;4997049;28;20209;-78
2022/07/18 11:47:39;;;;;;;0.50;0.50;;;33.60;1.00;;;;;;4996902;28;20212;-78
2022/07/18 11:50:05;;;;;;;0.57;0.57;;;33.80;1.00;;;;;;4995805;28;20594;-77
2022/07/18 11:52:32;;;;;;;0.47;0.47;;;33.70;1.00;;;;;;4995038;28;20694;-77
2022/07/18 11:55:00;;;;;;;0.50;0.50;;;34.20;1.00;;;;;;4997463;28;20185;-78
2022/07/18 11:57:30;;;;;;;0.50;0.50;;;34.30;1.00;;;;;;5000932;28;20192;-79
2022/07/18 11:59:56;;;;;;;0.50;0.50;;;33.80;1.00;;;;;;4998630;28;20196;-76
2022/07/18 12:02:21;;;;;;;0.32;0.32;;;33.60;1.00;;;;;;4998171;28;20201;-79
2022/07/18 12:04:47;;;;;;;0.47;0.47;;;33.70;1.00;;;;;;4996533;28;20177;-77
2022/07/18 12:07:14;;;;;;;0.50;0.50;;;33.90;1.00;;;;;;4996695;28;20275;-77
2022/07/18 12:09:40;;;;;;;0.57;0.57;;;34.30;1.00;;;;;;4995177;28;20343;-77
2022/07/18 12:12:10;;;;;;;0.57;0.57;;;34.60;1.00;;;;;;4998213;28;20705;-80
2022/07/18 12:14:38;;;;;;;0.57;0.57;;;34.90;1.00;;;;;;4999983;28;20181;-79
2022/07/18 12:17:04;;;;;;;0.50;0.50;;;34.30;1.00;;;;;;4998495;28;20183;-78
2022/07/18 12:19:36;;;;;;;0.40;0.40;;;33.70;1.00;;;;;;4997566;28;20175;-77
2022/07/18 12:22:04;;;;;;;0.55;0.55;;;33.80;1.00;;;;;;4996140;28;20201;-78
2022/07/18 12:24:34;;;;;;;0.50;0.50;;;34.10;1.00;;;;;;4996228;28;20232;-77
2022/07/18 12:27:19;;;;;;;0.45;0.45;;;34.50;1.00;;;;;;4997583;28;20252;-78
2022/07/18 12:29:59;;;;;;;0.43;0.43;;;34.60;1.00;;;;;;4996869;28;20183;-77
2022/07/18 12:32:29;;;;;;;0.50;0.50;;;34.80;1.00;;;;;;4996391;28;20235;-77
2022/07/18 12:34:57;;;;;;;0.40;0.40;;;35.10;1.00;;;;;;4996269;28;20178;-77
2022/07/18 12:37:25;;;;;;;0.40;0.40;;;35.20;1.00;;;;;;4995771;28;20180;-78
2022/07/18 12:39:59;;;;;;;0.50;0.50;;;35.30;1.00;;;;;;4996263;28;20669;-78
2022/07/18 12:42:34;;;;;;;0.40;0.40;;;35.20;1.00;;;;;;4997470;28;20570;-78
2022/07/18 12:45:00;;;;;;;0.50;0.50;;;35.10;1.00;;;;;;4998546;28;20258;-77
2022/07/18 12:47:26;;;;;;;0.30;0.30;;;35.00;1.00;;;;;;4998447;28;20178;-78
2022/07/18 12:49:52;;;;;;;0.55;0.55;;;34.80;1.00;;;;;;4999159;28;20260;-77
2022/07/18 12:52:18;;;;;;;0.43;0.43;;;34.30;1.00;;;;;;4998416;28;20248;-78
2022/07/18 12:54:44;;;;;;;0.55;0.55;;;34.00;1.00;;;;;;4998570;28;20182;-79
2022/07/18 12:57:10;;;;;;;0.50;0.50;;;33.70;1.00;;;;;;4998483;28;20564;-79
2022/07/18 12:59:36;;;;;;;0.60;0.60;;;33.70;1.00;;;;;;4997364;28;20179;-78
2022/07/18 13:02:02;;;;;;;0.40;0.40;;;33.70;1.00;;;;;;4998083;28;20678;-78